Change the Weather History Date:

Wednesday, January 30, 2013

  Actual Average Record
Temperature  
Mean Temperature 66 °F -  
Max Temperature 74 °F 56 °F 77 °F (1957)
Min Temperature 59 °F 28 °F -2 °F (2014)
Cooling Degree Days 2    
Growing Degree Days 16 (Base 50)    
Moisture  
Dew Point 60 °F    
Average Humidity 75    
Maximum Humidity 93    
Minimum Humidity 60    
Precipitation  
Precipitation 0.00 in - - ()
Sea Level Pressure  
Sea Level Pressure 29.85 in    
Wind  
Wind Speed 10 mph (South)    
Max Wind Speed 24 mph    
Max Gust Speed 34 mph    
Visibility 10 miles    
Events      
Averages and records for this station are not official NWS values.
T = Trace of Precipitation, MM = Missing Value Source: NWS Daily Summary

Daily Weather History Graph

Daily Weather History Graph

Search for Another Location

Airport or City:

Trip Planner

Search our weather history database for the weather conditions in past years. The results will help you decide how hot, cold, wet, or windy it might be!

Date:

Astronomy

Jan. 30, 2013 Rise Set
Actual Time 7:12 AM EST 5:35 PM EST
Civil Twilight 6:45 AM EST 6:02 PM EST
Nautical Twilight 6:14 AM EST 6:33 PM EST
Astronomical Twilight 5:44 AM EST 7:03 PM EST
Moon 9:22 PM EST (1/30) 8:47 AM EST (1/30)
Length of Visible Light 11h 17m
Length of Day
10h 23m
Waning Gibbous, 88% of the Moon is Illuminated
Jan 30
Waning Gibbous
Feb 3
Last Quarter
Feb 10
New
Feb 17
First Quarter
Feb 25
Full

Hourly Weather History & Observations

Time (EST) Temp. Dew Point Humidity Pressure Visibility Wind Dir Wind Speed Gust Speed Precip Events Conditions
12:15 AM 59.9 °F 55.0 °F 84% 30.09 in 10.0 mi South 4.6 mph - N/A   Clear
12:35 AM 60.8 °F 55.6 °F 83% 30.08 in 10.0 mi South 4.6 mph - N/A   Clear
12:55 AM 60.8 °F 55.8 °F 83% 30.08 in 10.0 mi South 5.8 mph - N/A   Clear
1:15 AM 61.0 °F 55.9 °F 83% 30.08 in 10.0 mi South 5.8 mph - N/A   Clear
1:35 AM 60.8 °F 56.1 °F 85% 30.07 in 10.0 mi SSW 6.9 mph - N/A   Clear
1:55 AM 61.0 °F 56.5 °F 85% 30.07 in 10.0 mi South 5.8 mph - N/A   Clear
2:15 AM 61.0 °F 57.0 °F 87% 30.06 in 10.0 mi SSW 8.1 mph - N/A   Clear
2:35 AM 61.2 °F 57.6 °F 88% 30.05 in 10.0 mi SSW 6.9 mph - N/A   Clear
2:55 AM 61.5 °F 57.9 °F 88% 30.06 in 10.0 mi SSW 8.1 mph - N/A   Mostly Cloudy
3:15 AM 61.5 °F 58.3 °F 89% 30.04 in 10.0 mi South 5.8 mph - N/A   Mostly Cloudy
3:35 AM 61.0 °F 58.1 °F 90% 30.04 in 10.0 mi South 5.8 mph - N/A   Scattered Clouds
3:55 AM 60.6 °F 58.1 °F 91% 30.03 in 10.0 mi South 4.6 mph - N/A   Mostly Cloudy
4:15 AM 60.1 °F 57.9 °F 93% 30.03 in 7.0 mi South 5.8 mph - N/A   Mostly Cloudy
4:35 AM 60.1 °F 58.1 °F 93% 30.03 in 7.0 mi South 6.9 mph - N/A   Overcast
4:55 AM 61.2 °F 59.0 °F 93% 30.02 in 10.0 mi South 9.2 mph - N/A   Overcast
5:15 AM 62.4 °F 59.4 °F 90% 30.01 in 10.0 mi SSW 10.4 mph - N/A   Overcast
5:35 AM 62.8 °F 59.4 °F 89% 30.01 in 10.0 mi South 6.9 mph - N/A   Mostly Cloudy
5:55 AM 62.6 °F 59.4 °F 89% 30.01 in 10.0 mi South 8.1 mph - N/A   Mostly Cloudy
6:15 AM 62.4 °F 59.4 °F 90% 30.01 in 10.0 mi South 6.9 mph - N/A   Mostly Cloudy
6:35 AM 62.4 °F 59.4 °F 90% 30.01 in 10.0 mi South 6.9 mph - N/A   Mostly Cloudy
6:55 AM 62.1 °F 59.2 °F 90% 30.00 in 10.0 mi South 9.2 mph - N/A   Scattered Clouds
7:15 AM 61.7 °F 59.0 °F 91% 29.99 in 7.0 mi South 9.2 mph - N/A   Scattered Clouds
7:35 AM 61.7 °F 59.0 °F 91% 29.99 in 7.0 mi South 10.4 mph 17.3 mph N/A   Scattered Clouds
8:15 AM 63.1 °F 59.4 °F 87% 29.99 in 10.0 mi South 9.2 mph 16.1 mph N/A   Mostly Cloudy
8:35 AM 63.5 °F 59.7 °F 87% 29.99 in 10.0 mi South 12.7 mph 17.3 mph N/A   Overcast
8:55 AM 64.0 °F 59.9 °F 86% 29.98 in 10.0 mi South 10.4 mph 17.3 mph N/A   Overcast
9:15 AM 64.9 °F 60.1 °F 84% 29.98 in 10.0 mi South 10.4 mph 21.9 mph N/A   Overcast
9:35 AM 65.8 °F 60.6 °F 83% 29.97 in 10.0 mi South 12.7 mph 18.4 mph N/A   Overcast
9:55 AM 67.3 °F 61.0 °F 80% 29.96 in 10.0 mi South 12.7 mph 20.7 mph N/A   Overcast
10:15 AM 68.9 °F 61.3 °F 77% 29.95 in 10.0 mi South 13.8 mph 19.6 mph N/A   Overcast
10:35 AM 70.0 °F 61.3 °F 74% 29.95 in 10.0 mi SSW 17.3 mph 25.3 mph N/A   Mostly Cloudy
10:55 AM 72.3 °F 61.2 °F 68% 29.94 in 10.0 mi SSW 13.8 mph 25.3 mph N/A   Mostly Cloudy
11:15 AM 74.3 °F 61.0 °F 63% 29.92 in 10.0 mi South 17.3 mph 25.3 mph N/A   Mostly Cloudy
11:35 AM 74.3 °F 60.3 °F 61% 29.90 in 10.0 mi South 16.1 mph 26.5 mph N/A   Scattered Clouds
11:55 AM 74.7 °F 60.1 °F 60% 29.90 in 10.0 mi SSW 17.3 mph 27.6 mph N/A   Mostly Cloudy
12:15 PM 73.0 °F 60.1 °F 64% 29.89 in 10.0 mi SSW 19.6 mph 29.9 mph N/A   Overcast
12:55 PM 74.1 °F 60.6 °F 63% 29.85 in 10.0 mi South 16.1 mph 21.9 mph N/A   Overcast
1:15 PM 74.5 °F 60.3 °F 61% 29.84 in 10.0 mi SSW 16.1 mph 29.9 mph N/A   Overcast
1:35 PM 74.3 °F 60.3 °F 61% 29.82 in 10.0 mi South 10.4 mph 23.0 mph N/A   Overcast
1:55 PM 74.8 °F 60.3 °F 60% 29.82 in 10.0 mi South 24.2 mph 29.9 mph N/A   Overcast
2:15 PM 74.7 °F 60.3 °F 61% 29.80 in 10.0 mi South 16.1 mph 25.3 mph N/A   Overcast
2:35 PM 73.9 °F 60.3 °F 62% 29.79 in 10.0 mi South 12.7 mph 26.5 mph N/A   Overcast
2:55 PM 73.8 °F 60.8 °F 64% 29.79 in 10.0 mi South 13.8 mph 28.8 mph N/A   Overcast
3:15 PM 74.1 °F 60.6 °F 63% 29.78 in 10.0 mi South 16.1 mph 25.3 mph N/A   Overcast
3:35 PM 74.3 °F 60.8 °F 63% 29.76 in 10.0 mi South 16.1 mph 24.2 mph N/A   Overcast
3:55 PM 74.3 °F 60.4 °F 62% 29.75 in 10.0 mi South 16.1 mph 25.3 mph N/A   Overcast
4:15 PM 74.5 °F 60.1 °F 61% 29.74 in 10.0 mi South 18.4 mph 28.8 mph N/A   Mostly Cloudy
4:35 PM 73.8 °F 59.5 °F 61% 29.73 in 10.0 mi South 12.7 mph 28.8 mph N/A   Mostly Cloudy
4:55 PM 72.9 °F 59.2 °F 62% 29.72 in 10.0 mi South 15.0 mph 23.0 mph N/A   Overcast
5:15 PM 72.5 °F 59.0 °F 62% 29.71 in 10.0 mi South 20.7 mph 31.1 mph N/A   Overcast
5:35 PM 72.3 °F 59.0 °F 63% 29.70 in 10.0 mi South 12.7 mph 26.5 mph N/A   Overcast
5:55 PM 71.8 °F 59.4 °F 65% 29.71 in 10.0 mi South 13.8 mph 24.2 mph N/A   Overcast
6:15 PM 71.6 °F 59.5 °F 66% 29.70 in 10.0 mi South 16.1 mph 26.5 mph N/A   Overcast
6:35 PM 71.1 °F 59.9 °F 68% 29.69 in 10.0 mi South 16.1 mph 26.5 mph N/A   Overcast
6:55 PM 70.9 °F 60.3 °F 69% 29.68 in 10.0 mi South 18.4 mph 26.5 mph N/A   Overcast
7:15 PM 70.7 °F 60.6 °F 70% 29.67 in 10.0 mi South 17.3 mph 27.6 mph N/A   Overcast
7:35 PM 70.7 °F 60.8 °F 71% 29.66 in 10.0 mi South 17.3 mph 26.5 mph N/A   Overcast
7:55 PM 70.7 °F 60.8 °F 71% 29.64 in 10.0 mi South 17.3 mph 24.2 mph N/A   Overcast
8:15 PM 70.7 °F 60.8 °F 71% 29.63 in 10.0 mi South 18.4 mph 28.8 mph N/A   Overcast
8:35 PM 70.3 °F 60.8 °F 72% 29.61 in 10.0 mi South 19.6 mph 31.1 mph N/A   Overcast
8:55 PM 70.5 °F 60.6 °F 71% 29.60 in 10.0 mi South 18.4 mph 34.5 mph N/A   Overcast
9:15 PM 70.7 °F 60.8 °F 71% 29.59 in 10.0 mi South 19.6 mph 33.4 mph N/A   Overcast
9:35 PM 70.9 °F 60.8 °F 70% 29.59 in 10.0 mi South 20.7 mph 34.5 mph N/A   Overcast
9:55 PM 71.1 °F 60.8 °F 70% 29.57 in 10.0 mi South 19.6 mph 32.2 mph N/A   Overcast
10:15 PM 71.1 °F 60.8 °F 70% 29.55 in 10.0 mi South 20.7 mph 29.9 mph N/A   Overcast
10:35 PM 71.2 °F 60.8 °F 69% 29.53 in 10.0 mi South 18.4 mph 33.4 mph N/A   Overcast
11:15 PM 71.4 °F 61.0 °F 70% 29.51 in 10.0 mi South 20.7 mph 32.2 mph N/A   Overcast
11:35 PM 71.4 °F 61.2 °F 70% 29.49 in 10.0 mi South 18.4 mph 31.1 mph N/A   Overcast
11:55 PM 71.1 °F 61.3 °F 71% 29.46 in 10.0 mi South 17.3 mph 32.2 mph N/A   Drizzle